createdAt,value
2022-10-16T00:00:54.074Z,101016.30
2022-10-16T00:01:56.447Z,101017.98
2022-10-16T00:02:59.009Z,101013.64
2022-10-16T00:04:01.617Z,101023.11
2022-10-16T00:05:04.991Z,101017.19
2022-10-16T00:06:08.488Z,101026.66
2022-10-16T00:07:11.982Z,101011.99
2022-10-16T00:08:15.455Z,101013.67
2022-10-16T00:09:17.945Z,101017.94
2022-10-16T00:10:21.795Z,101013.63
2022-10-16T00:11:26.446Z,101020.56
2022-10-16T00:12:28.665Z,101017.14
2022-10-16T00:13:32.287Z,101017.98
2022-10-16T00:14:34.281Z,101014.50
2022-10-16T00:15:37.375Z,101019.70
2022-10-16T00:16:40.558Z,101017.94
2022-10-16T00:17:43.667Z,101011.05
2022-10-16T00:18:45.700Z,101011.90
2022-10-16T00:19:47.600Z,101010.25
2022-10-16T00:20:49.504Z,101016.30
2022-10-16T00:21:51.281Z,101014.54
2022-10-16T00:22:53.483Z,101018.84
2022-10-16T00:23:58.279Z,101028.31
2022-10-16T00:25:00.393Z,101024.88
2022-10-16T00:26:06.550Z,101024.87
2022-10-16T00:27:08.300Z,101014.54
2022-10-16T00:28:10.168Z,101021.42
2022-10-16T00:29:12.062Z,101016.22
2022-10-16T00:30:14.184Z,101019.73
2022-10-16T00:31:17.522Z,101020.56
2022-10-16T00:33:32.620Z,101016.17
2022-10-16T00:34:35.034Z,101022.23
2022-10-16T00:35:36.893Z,101023.11
2022-10-16T00:36:39.811Z,101029.99
2022-10-16T00:37:41.657Z,101029.99
2022-10-16T00:38:44.190Z,101023.10
2022-10-16T00:39:45.970Z,101023.08
2022-10-16T00:40:48.107Z,101024.78
2022-10-16T00:41:49.928Z,101028.23
2022-10-16T00:42:51.792Z,101024.82
2022-10-16T00:44:00.035Z,101026.56
2022-10-16T00:45:03.048Z,101030.03
2022-10-16T00:47:31.709Z,101019.70
2022-10-16T00:48:33.910Z,101030.11
2022-10-16T00:49:35.988Z,101033.55
2022-10-16T00:50:38.523Z,101030.11
2022-10-16T00:51:46.402Z,101026.66
2022-10-16T00:52:50.254Z,101036.13
2022-10-16T00:53:52.753Z,101039.60
2022-10-16T00:54:55.610Z,101038.74
2022-10-16T00:55:57.622Z,101043.05
2022-10-16T00:57:02.426Z,101040.45
2022-10-16T00:58:04.555Z,101033.58
2022-10-16T00:59:10.062Z,101037.06
2022-10-16T01:00:17.508Z,101040.55
2022-10-16T01:01:19.517Z,101041.39
2022-10-16T01:02:21.801Z,101039.69
2022-10-16T01:03:27.264Z,101043.95
2022-10-16T01:04:32.850Z,101041.35
2022-10-16T01:05:41.626Z,101053.36
2022-10-16T01:06:49.879Z,101049.05
2022-10-16T01:07:58.357Z,101043.87
2022-10-16T01:09:16.214Z,101043.84
2022-10-16T01:10:37.126Z,101047.29
2022-10-16T01:11:45.697Z,101043.81
2022-10-16T01:13:03.444Z,101036.92
2022-10-16T01:14:09.023Z,101037.80
2022-10-16T01:15:29.989Z,101043.00
2022-10-16T01:16:41.646Z,101043.84
2022-10-16T01:17:47.929Z,101043.81
2022-10-16T01:18:56.220Z,101041.21
2022-10-16T01:20:18.500Z,101042.09
2022-10-16T01:21:26.554Z,101036.95
2022-10-16T01:22:32.075Z,101040.41
2022-10-16T01:23:55.663Z,101042.98
2022-10-16T01:25:01.825Z,101040.44
2022-10-16T01:26:16.671Z,101046.53
2022-10-16T01:27:32.058Z,101050.84
2022-10-16T01:28:46.335Z,101049.93
2022-10-16T01:30:13.426Z,101059.39
2022-10-16T01:31:19.120Z,101055.95
2022-10-16T01:32:41.988Z,101054.23
2022-10-16T01:33:47.593Z,101053.36
2022-10-16T01:35:08.406Z,101056.00
2022-10-16T01:36:17.662Z,101053.42
2022-10-16T01:37:23.662Z,101049.95
2022-10-16T01:38:35.391Z,101062.89
2022-10-16T01:39:40.335Z,101056.03
2022-10-16T01:40:49.069Z,101057.77
2022-10-16T01:41:54.620Z,101067.27
2022-10-16T01:43:06.508Z,101063.84
2022-10-16T01:44:15.633Z,101066.42
2022-10-16T01:45:20.205Z,101062.12
2022-10-16T01:46:24.596Z,101062.98
2022-10-16T01:47:28.629Z,101061.26
2022-10-16T01:48:33.236Z,101071.60
2022-10-16T01:49:38.586Z,101065.56
2022-10-16T01:50:44.122Z,101068.13
2022-10-16T01:51:49.508Z,101074.17
2022-10-16T01:52:55.018Z,101069.86
2022-10-16T01:54:00.562Z,101068.12
2022-10-16T01:55:07.237Z,101071.53
2022-10-16T01:56:12.678Z,101071.53
2022-10-16T01:57:16.436Z,101072.43
2022-10-16T01:58:18.464Z,101069.84
2022-10-16T01:59:23.366Z,101070.73
2022-10-16T02:00:26.936Z,101068.98
2022-10-16T02:01:32.045Z,101071.61
2022-10-16T02:02:34.628Z,101076.77
2022-10-16T02:03:40.576Z,101078.47
2022-10-16T02:05:59.371Z,101071.50
2022-10-16T02:07:01.604Z,101062.97
2022-10-16T02:08:05.617Z,101062.97
2022-10-16T02:09:07.972Z,101069.84
2022-10-16T02:10:11.530Z,101073.28
2022-10-16T02:11:13.349Z,101075.88
2022-10-16T02:12:31.927Z,101074.14
2022-10-16T02:13:46.577Z,101078.43
2022-10-16T02:14:48.795Z,101081.00
2022-10-16T02:15:52.335Z,101080.16
2022-10-16T02:16:56.203Z,101078.42
2022-10-16T02:17:57.996Z,101085.30
2022-10-16T02:19:00.183Z,101090.44
2022-10-16T02:20:03.830Z,101079.26
2022-10-16T02:21:09.426Z,101083.58
2022-10-16T02:22:17.973Z,101088.75
2022-10-16T02:23:23.611Z,101093.08
2022-10-16T02:24:35.691Z,101088.80
2022-10-16T02:25:41.251Z,101085.36
2022-10-16T02:27:04.073Z,101088.80
2022-10-16T02:28:24.934Z,101090.48
2022-10-16T02:29:28.138Z,101087.92
2022-10-16T02:30:45.643Z,101085.36
2022-10-16T02:31:51.210Z,101085.36
2022-10-16T02:32:55.739Z,101085.38
2022-10-16T02:34:01.586Z,101083.66
2022-10-16T02:35:05.422Z,101087.08
2022-10-16T02:36:08.604Z,101087.09
2022-10-16T02:37:11.045Z,101088.81
2022-10-16T02:38:15.468Z,101090.54
2022-10-16T02:39:18.656Z,101087.95
2022-10-16T02:40:24.392Z,101090.53
2022-10-16T02:41:25.211Z,101085.39
2022-10-16T02:42:36.661Z,101091.41
2022-10-16T02:43:38.739Z,101091.41
2022-10-16T02:44:40.961Z,101093.97
2022-10-16T02:45:42.745Z,101093.09
2022-10-16T02:46:44.645Z,101099.12
2022-10-16T02:47:46.984Z,101095.67
2022-10-16T02:48:48.704Z,101099.98
2022-10-16T02:49:50.321Z,101105.99
2022-10-16T02:50:52.282Z,101098.25
2022-10-16T02:51:54.112Z,101098.28
2022-10-16T02:52:56.032Z,101101.69
2022-10-16T02:53:58.020Z,101092.25
2022-10-16T02:54:59.863Z,101100.00
2022-10-16T02:56:01.911Z,101102.56
2022-10-16T02:57:03.701Z,101102.56
2022-10-16T02:58:06.270Z,101099.99
2022-10-16T02:59:07.946Z,101099.13
2022-10-16T03:00:13.412Z,101094.84
2022-10-16T03:01:15.829Z,101097.39
2022-10-16T03:02:18.205Z,101103.41
2022-10-16T03:03:19.887Z,101105.13
2022-10-16T03:04:21.617Z,101102.56
2022-10-16T03:05:23.464Z,101098.27
2022-10-16T03:06:25.864Z,101097.41
2022-10-16T03:07:28.480Z,101105.14
2022-10-16T03:08:30.523Z,101115.45
2022-10-16T03:09:32.368Z,101107.73
2022-10-16T03:10:35.087Z,101109.44
2022-10-16T03:11:37.116Z,101120.62
2022-10-16T03:12:38.945Z,101106.88
2022-10-16T03:13:40.592Z,101108.59
2022-10-16T03:14:42.373Z,101109.44
2022-10-16T03:15:44.392Z,101112.88
2022-10-16T03:16:46.298Z,101118.03
2022-10-16T03:17:48.313Z,101113.74
2022-10-16T03:18:50.208Z,101115.46
2022-10-16T03:19:52.256Z,101119.77
2022-10-16T03:20:54.266Z,101112.89
2022-10-16T03:21:56.641Z,101116.33
2022-10-16T03:22:59.239Z,101112.02
2022-10-16T03:24:01.358Z,101110.29
2022-10-16T03:25:04.240Z,101112.88
2022-10-16T03:26:06.363Z,101118.87
2022-10-16T03:27:08.404Z,101118.91
2022-10-16T03:28:10.187Z,101117.19
2022-10-16T03:29:11.957Z,101121.48
2022-10-16T03:30:14.948Z,101117.17
2022-10-16T03:31:16.777Z,101121.48
2022-10-16T03:32:18.488Z,101119.75
2022-10-16T03:33:20.350Z,101120.61
2022-10-16T03:34:22.291Z,101117.16
2022-10-16T03:35:24.869Z,101117.12
2022-10-16T03:36:27.024Z,101121.45
2022-10-16T03:37:31.057Z,101121.42
2022-10-16T03:38:32.988Z,101124.00
2022-10-16T03:39:34.643Z,101124.02
2022-10-16T03:40:36.365Z,101123.98
2022-10-16T03:41:38.292Z,101125.74
2022-10-16T03:42:40.130Z,101125.74
2022-10-16T03:43:41.870Z,101124.86
2022-10-16T03:44:43.600Z,101126.54
2022-10-16T03:45:45.349Z,101124.83
2022-10-16T03:46:47.075Z,101132.56
2022-10-16T03:47:49.883Z,101121.38
2022-10-16T03:48:51.736Z,101127.41
2022-10-16T03:49:53.578Z,101121.41
2022-10-16T03:50:55.517Z,101131.69
2022-10-16T03:51:57.346Z,101135.14
2022-10-16T03:52:59.526Z,101135.14
2022-10-16T03:54:01.363Z,101134.30
2022-10-16T03:55:03.449Z,101136.87
2022-10-16T03:56:06.319Z,101129.14
2022-10-16T03:57:08.993Z,101124.83
2022-10-16T03:58:11.418Z,101129.14
2022-10-16T03:59:13.424Z,101129.14
2022-10-16T04:00:15.471Z,101123.14
2022-10-16T04:01:17.222Z,101126.59
2022-10-16T04:02:19.602Z,101123.16
2022-10-16T04:03:22.038Z,101126.59
2022-10-16T04:04:24.348Z,101122.30
2022-10-16T04:05:26.273Z,101124.88
2022-10-16T04:06:28.775Z,101125.77
2022-10-16T04:07:31.136Z,101129.20
2022-10-16T04:08:33.545Z,101129.20
2022-10-16T04:09:35.806Z,101130.05
2022-10-16T04:10:38.039Z,101130.91
2022-10-16T04:11:41.050Z,101130.94
2022-10-16T04:12:42.901Z,101133.52
2022-10-16T04:13:44.562Z,101132.63
2022-10-16T04:14:46.538Z,101121.47
2022-10-16T04:15:48.318Z,101131.80
2022-10-16T04:16:50.430Z,101130.07
2022-10-16T04:17:52.701Z,101126.62
2022-10-16T04:18:54.610Z,101125.76
2022-10-16T04:19:56.350Z,101119.75
2022-10-16T04:21:03.957Z,101123.19
2022-10-16T04:22:05.834Z,101120.61
2022-10-16T04:23:07.658Z,101124.03
2022-10-16T04:24:09.424Z,101124.91
2022-10-16T04:25:11.557Z,101124.89
2022-10-16T04:26:13.366Z,101125.77
2022-10-16T04:27:15.093Z,101131.78
2022-10-16T04:28:16.770Z,101124.05
2022-10-16T04:29:18.635Z,101131.78
2022-10-16T04:30:21.736Z,101133.50
2022-10-16T04:31:24.046Z,101133.49
2022-10-16T04:32:26.870Z,101126.62
2022-10-16T04:33:28.727Z,101128.33
2022-10-16T04:34:30.626Z,101130.04
2022-10-16T04:35:32.470Z,101138.61
2022-10-16T04:36:34.477Z,101131.74
2022-10-16T04:37:36.139Z,101135.22
2022-10-16T04:38:37.989Z,101136.92
2022-10-16T04:39:40.365Z,101136.92
2022-10-16T04:40:43.192Z,101138.63
2022-10-16T04:41:46.343Z,101138.63
2022-10-16T04:42:48.160Z,101140.36
2022-10-16T04:43:50.495Z,101136.06
2022-10-16T04:44:52.298Z,101148.11
2022-10-16T04:45:54.049Z,101146.33
2022-10-16T04:46:55.862Z,101150.59
2022-10-16T04:47:58.615Z,101156.62
2022-10-16T04:49:00.406Z,101147.20
2022-10-16T04:50:03.171Z,101156.67
2022-10-16T04:51:05.402Z,101159.24
2022-10-16T04:52:08.155Z,101159.23
2022-10-16T04:53:10.590Z,101157.53
2022-10-16T04:54:13.362Z,101162.66
2022-10-16T04:55:15.304Z,101160.12
2022-10-16T04:56:17.499Z,101169.58
2022-10-16T04:57:19.216Z,101166.14
2022-10-16T04:58:21.238Z,101172.17
2022-10-16T04:59:24.419Z,101167.02
2022-10-16T05:00:27.952Z,101173.05
2022-10-16T05:01:29.903Z,101179.92
2022-10-16T05:02:32.115Z,101174.77
2022-10-16T05:03:34.798Z,101178.20
2022-10-16T05:04:36.786Z,101181.65
2022-10-16T05:05:43.800Z,101183.38
2022-10-16T05:06:45.828Z,101175.66
2022-10-16T05:07:48.252Z,101183.38
2022-10-16T05:08:50.198Z,101178.23
2022-10-16T05:09:52.112Z,101179.94
2022-10-16T05:10:54.215Z,101186.81
2022-10-16T05:11:56.290Z,101184.25
2022-10-16T05:12:58.244Z,101184.23
2022-10-16T05:14:00.629Z,101184.23
2022-10-16T05:15:03.745Z,101191.98
2022-10-16T05:16:06.666Z,101183.38
2022-10-16T05:17:08.604Z,101181.66
2022-10-16T05:18:10.454Z,101188.51
2022-10-16T05:19:26.788Z,101191.07
2022-10-16T05:20:16.869Z,101193.66
2022-10-16T05:21:18.706Z,101192.80
2022-10-16T05:22:21.033Z,101195.41
2022-10-16T05:23:22.950Z,101197.97
2022-10-16T05:24:25.716Z,101194.55
2022-10-16T05:25:27.584Z,101198.83
2022-10-16T05:26:29.604Z,101195.40
2022-10-16T05:27:31.415Z,101189.36
2022-10-16T05:28:33.524Z,101189.36
2022-10-16T05:29:35.448Z,101207.41
2022-10-16T05:30:38.100Z,101203.98
2022-10-16T05:31:40.348Z,101211.70
2022-10-16T05:32:44.303Z,101209.98
2022-10-16T05:33:46.254Z,101208.27
2022-10-16T05:34:48.008Z,101212.58
2022-10-16T05:35:50.695Z,101217.70
2022-10-16T05:36:53.129Z,101213.42
2022-10-16T05:37:55.198Z,101217.72
2022-10-16T05:38:57.542Z,101216.02
2022-10-16T05:39:59.401Z,101226.30
2022-10-16T05:41:01.477Z,101222.87
2022-10-16T05:42:03.705Z,101226.29
2022-10-16T05:43:06.634Z,101231.44
2022-10-16T05:44:08.815Z,101234.04
2022-10-16T05:45:11.731Z,101234.91
2022-10-16T05:46:14.687Z,101240.95
2022-10-16T05:47:16.554Z,101240.95
2022-10-16T05:48:18.422Z,101240.97
2022-10-16T05:49:20.274Z,101244.39
2022-10-16T05:50:22.018Z,101240.09
2022-10-16T05:51:23.990Z,101245.27
2022-10-16T05:52:27.275Z,101246.12
2022-10-16T05:53:31.098Z,101251.28
2022-10-16T05:54:32.927Z,101250.42
2022-10-16T05:55:34.668Z,101252.15
2022-10-16T05:56:36.781Z,101248.73
2022-10-16T05:57:38.947Z,101244.42
2022-10-16T05:58:41.265Z,101247.02
2022-10-16T05:59:44.137Z,101245.30
2022-10-16T06:00:55.780Z,101249.59
2022-10-16T06:01:57.910Z,101245.30
2022-10-16T06:02:59.656Z,101243.56
2022-10-16T06:04:02.518Z,101253.05
2022-10-16T06:05:05.756Z,101258.22
2022-10-16T06:06:14.059Z,101253.92
2022-10-16T06:07:16.925Z,101250.48
2022-10-16T06:08:21.968Z,101253.92
2022-10-16T06:09:23.819Z,101261.65
2022-10-16T06:10:25.569Z,101262.51
2022-10-16T06:11:30.856Z,101265.09
2022-10-16T06:12:32.862Z,101262.51
2022-10-16T06:13:35.502Z,101264.23
2022-10-16T06:14:37.368Z,101258.23
2022-10-16T06:15:40.242Z,101258.23
2022-10-16T06:16:42.773Z,101265.11
2022-10-16T06:17:44.579Z,101269.39
2022-10-16T06:18:47.219Z,101266.83
2022-10-16T06:19:49.105Z,101269.41
2022-10-16T06:20:51.601Z,101272.84
2022-10-16T06:21:53.377Z,101273.73
2022-10-16T06:22:55.171Z,101269.41
2022-10-16T06:23:58.501Z,101276.30
2022-10-16T06:25:00.901Z,101280.59
2022-10-16T06:26:13.697Z,101275.44
2022-10-16T06:27:16.109Z,101281.45
2022-10-16T06:28:18.133Z,101281.42
2022-10-16T06:29:20.531Z,101277.97
2022-10-16T06:30:22.490Z,101282.33
2022-10-16T06:31:26.004Z,101280.59
2022-10-16T06:32:28.232Z,101278.83
2022-10-16T06:33:30.256Z,101278.83
2022-10-16T06:34:32.048Z,101276.24
2022-10-16T06:35:34.212Z,101276.24
2022-10-16T06:36:37.053Z,101290.84
2022-10-16T06:37:39.022Z,101292.57
2022-10-16T06:38:42.733Z,101290.86
2022-10-16T06:39:45.098Z,101296.04
2022-10-16T06:40:47.133Z,101289.17
2022-10-16T06:41:49.428Z,101294.36
2022-10-16T06:42:51.430Z,101291.79
2022-10-16T06:43:53.289Z,101295.23
2022-10-16T06:44:55.272Z,101294.36
2022-10-16T06:45:58.656Z,101290.92
2022-10-16T06:47:00.666Z,101290.91
2022-10-16T06:48:03.793Z,101292.62
2022-10-16T06:49:05.560Z,101293.48
2022-10-16T06:50:08.222Z,101288.27
2022-10-16T06:51:14.893Z,101297.73
2022-10-16T06:52:17.096Z,101296.88
2022-10-16T06:53:19.906Z,101302.02
2022-10-16T06:54:21.687Z,101303.75
2022-10-16T06:55:23.430Z,101295.94
2022-10-16T06:56:27.564Z,101295.94
2022-10-16T06:57:30.373Z,101299.35
2022-10-16T06:58:32.166Z,101299.32
2022-10-16T06:59:33.832Z,101298.41
2022-10-16T07:00:35.568Z,101294.92
2022-10-16T07:01:38.718Z,101290.65
2022-10-16T07:02:40.728Z,101290.61
2022-10-16T07:03:44.848Z,101298.34
2022-10-16T07:04:46.795Z,101292.28
2022-10-16T07:05:48.625Z,101294.92
2022-10-16T07:06:50.586Z,101294.92
2022-10-16T07:07:53.277Z,101296.70
2022-10-16T07:08:55.169Z,101298.44
2022-10-16T07:09:56.902Z,101291.58
2022-10-16T07:11:02.068Z,101290.74
2022-10-16T07:12:06.653Z,101289.82
2022-10-16T07:13:08.548Z,101290.66
2022-10-16T07:14:19.065Z,101297.56
2022-10-16T07:15:20.812Z,101294.99
2022-10-16T07:16:31.626Z,101297.61
2022-10-16T07:17:33.487Z,101300.20
2022-10-16T07:18:36.243Z,101303.63
2022-10-16T07:19:38.080Z,101307.06
2022-10-16T07:20:40.596Z,101307.03
2022-10-16T07:21:42.992Z,101307.93
2022-10-16T07:22:45.393Z,101307.02
2022-10-16T07:23:56.184Z,101310.41
2022-10-16T07:24:58.046Z,101305.16
2022-10-16T07:26:00.281Z,101308.53
2022-10-16T07:27:03.247Z,101307.63
2022-10-16T07:28:06.119Z,101311.94
2022-10-16T07:29:14.936Z,101306.84
2022-10-16T07:30:17.572Z,101313.70
2022-10-16T07:31:20.862Z,101305.08
2022-10-16T07:32:22.914Z,101296.41
2022-10-16T07:33:24.595Z,101307.69
2022-10-16T07:34:26.455Z,101308.61
2022-10-16T07:35:29.508Z,101308.61
2022-10-16T07:36:32.545Z,101309.47
2022-10-16T07:37:34.465Z,101306.89
2022-10-16T07:38:36.521Z,101306.05
2022-10-16T07:39:38.316Z,101306.89
2022-10-16T07:40:41.391Z,101310.34
2022-10-16T07:41:44.870Z,101310.32
2022-10-16T07:42:47.681Z,101307.77
2022-10-16T07:43:53.322Z,101306.06
2022-10-16T07:44:55.290Z,101314.66
2022-10-16T07:46:02.432Z,101308.61
2022-10-16T07:47:03.789Z,101312.92
2022-10-16T07:48:06.102Z,101311.16
2022-10-16T07:49:10.154Z,101311.16
2022-10-16T07:50:12.417Z,101310.30
2022-10-16T07:51:17.838Z,101315.42
2022-10-16T07:52:21.060Z,101305.03
2022-10-16T07:53:26.216Z,101303.27
2022-10-16T07:54:27.369Z,101304.98
2022-10-16T07:55:30.154Z,101302.37
2022-10-16T07:56:33.044Z,101303.19
2022-10-16T07:57:35.612Z,101311.80
2022-10-16T07:58:38.693Z,101304.97
2022-10-16T07:59:40.583Z,101309.23
2022-10-16T08:00:43.086Z,101313.47
2022-10-16T08:01:47.162Z,101310.86
2022-10-16T08:02:49.505Z,101309.13
2022-10-16T08:03:52.731Z,101311.78
2022-10-16T08:04:54.736Z,101303.11
2022-10-16T08:05:58.178Z,101303.91
2022-10-16T08:07:01.439Z,101306.49
2022-10-16T08:08:05.409Z,101305.62
2022-10-16T08:09:09.451Z,101303.86
2022-10-16T08:11:27.379Z,101303.70
2022-10-16T08:12:29.299Z,101302.07
2022-10-16T08:13:32.257Z,101298.53
2022-10-16T08:14:34.134Z,101298.53
2022-10-16T08:15:36.034Z,101300.22
2022-10-16T08:16:38.759Z,101304.47
2022-10-16T08:17:40.461Z,101298.41
2022-10-16T08:18:43.063Z,101302.66
2022-10-16T08:19:47.781Z,101295.71
2022-10-16T08:20:56.022Z,101298.30
2022-10-16T08:21:57.868Z,101298.17
2022-10-16T08:23:01.112Z,101299.80
2022-10-16T08:24:03.210Z,101297.07
2022-10-16T08:25:05.728Z,101299.43
2022-10-16T08:26:09.297Z,101302.74
2022-10-16T08:27:11.094Z,101297.55
2022-10-16T08:28:12.719Z,101291.25
2022-10-16T08:29:15.718Z,101292.91
2022-10-16T08:30:21.553Z,101296.20
2022-10-16T08:31:24.350Z,101286.57
2022-10-16T08:32:27.604Z,101289.07
2022-10-16T08:33:30.313Z,101290.89
2022-10-16T08:34:32.248Z,101285.69
2022-10-16T08:35:34.695Z,101290.69
2022-10-16T08:36:38.005Z,101289.72
2022-10-16T08:37:40.704Z,101287.93
2022-10-16T08:38:43.139Z,101286.10
2022-10-16T08:39:44.868Z,101286.73
2022-10-16T08:40:51.246Z,101291.83
2022-10-16T08:42:05.863Z,101286.44
2022-10-16T08:43:20.324Z,101288.94
2022-10-16T08:44:38.579Z,101298.56
2022-10-16T08:45:47.547Z,101287.33
2022-10-16T08:47:14.533Z,101289.77
2022-10-16T08:48:43.039Z,101289.73
2022-10-16T08:49:48.662Z,101295.09
2022-10-16T08:50:54.400Z,101294.24
2022-10-16T08:51:57.163Z,101283.84
2022-10-16T08:52:59.713Z,101290.66
2022-10-16T08:54:29.418Z,101289.84
2022-10-16T08:55:41.695Z,101281.09
2022-10-16T08:56:49.659Z,101284.58
2022-10-16T08:57:55.060Z,101284.66
2022-10-16T08:59:01.527Z,101282.70
2022-10-16T09:00:09.410Z,101292.02
2022-10-16T09:01:18.762Z,101291.11
2022-10-16T09:02:32.930Z,101292.55
2022-10-16T09:03:52.530Z,101292.59
2022-10-16T09:07:01.233Z,101287.51
2022-10-16T09:08:13.433Z,101285.34
2022-10-16T09:09:45.760Z,101288.38
2022-10-16T09:11:05.701Z,101291.75
2022-10-16T09:12:41.914Z,101288.13
2022-10-16T09:14:09.582Z,101296.66
2022-10-16T09:15:16.360Z,101300.32
2022-10-16T09:16:38.375Z,101300.43
2022-10-16T09:18:15.867Z,101297.83
2022-10-16T09:19:34.139Z,101294.24
2022-10-16T09:22:14.259Z,101281.94
2022-10-16T09:23:28.139Z,101279.33
2022-10-16T09:24:37.914Z,101282.78
2022-10-16T09:25:43.769Z,101277.66
2022-10-16T09:26:48.294Z,101275.20
2022-10-16T09:27:53.400Z,101276.86
2022-10-16T09:28:56.220Z,101285.34
2022-10-16T09:29:59.975Z,101285.45
2022-10-16T09:31:02.221Z,101287.02
2022-10-16T09:32:16.629Z,101284.34
2022-10-16T09:33:25.316Z,101288.55
2022-10-16T09:34:37.685Z,101286.70
2022-10-16T09:35:43.633Z,101295.27
2022-10-16T09:36:46.878Z,101289.14
2022-10-16T09:37:52.331Z,101296.11
2022-10-16T09:39:09.767Z,101285.19
2022-10-16T09:40:16.173Z,101284.98
2022-10-16T09:41:21.678Z,101294.47
2022-10-16T09:42:29.352Z,101284.83
2022-10-16T09:43:40.880Z,101291.63
2022-10-16T09:44:44.718Z,101289.86
2022-10-16T09:46:04.702Z,101292.46
2022-10-16T09:47:10.217Z,101294.30
2022-10-16T09:48:15.253Z,101283.82
2022-10-16T09:49:26.594Z,101289.81
2022-10-16T09:50:29.879Z,101284.44
2022-10-16T09:51:34.941Z,101290.56
2022-10-16T09:52:36.851Z,101287.84
2022-10-16T09:53:44.816Z,101285.27
2022-10-16T09:54:55.681Z,101287.04
2022-10-16T09:55:58.242Z,101284.48
2022-10-16T09:57:10.345Z,101283.68
2022-10-16T09:58:14.210Z,101284.40
2022-10-16T09:59:18.071Z,101283.38
2022-10-16T10:00:23.652Z,101280.66
2022-10-16T10:01:30.267Z,101274.47
2022-10-16T10:02:38.123Z,101270.37
2022-10-16T10:03:44.936Z,101272.22
2022-10-16T10:04:55.416Z,101264.37
2022-10-16T10:06:01.281Z,101269.53
2022-10-16T10:07:02.277Z,101264.14
2022-10-16T10:08:05.903Z,101249.47
2022-10-16T10:09:30.570Z,101262.34
2022-10-16T10:10:36.720Z,101248.39
2022-10-16T10:11:41.854Z,101250.16
2022-10-16T10:12:46.217Z,101257.00
2022-10-16T10:13:49.218Z,101256.20
2022-10-16T10:14:54.783Z,101256.20
2022-10-16T10:15:57.798Z,101253.73
2022-10-16T10:17:15.692Z,101251.84
2022-10-16T10:18:24.072Z,101249.97
2022-10-16T10:19:28.149Z,101251.78
2022-10-16T10:20:34.657Z,101254.25
2022-10-16T10:21:39.477Z,101249.83
2022-10-16T10:22:45.896Z,101247.05
2022-10-16T10:23:56.266Z,101249.46
2022-10-16T10:25:11.033Z,101247.34
2022-10-16T10:26:17.757Z,101243.59
2022-10-16T10:27:21.410Z,101239.37
2022-10-16T10:28:55.148Z,101241.77
2022-10-16T10:30:03.773Z,101231.09
2022-10-16T10:31:28.227Z,101228.11
2022-10-16T10:32:52.724Z,101226.21
2022-10-16T10:34:10.487Z,101220.28
2022-10-16T10:35:25.719Z,101219.80
2022-10-16T10:36:34.839Z,101219.63
2022-10-16T10:37:55.619Z,101213.28
2022-10-16T10:39:04.215Z,101213.16
2022-10-16T10:40:29.587Z,101209.59
2022-10-16T10:41:55.076Z,101203.25
2022-10-16T10:43:01.198Z,101201.63
2022-10-16T10:44:41.478Z,101202.99
2022-10-16T10:45:46.894Z,101199.67
2022-10-16T10:46:58.152Z,101207.14
2022-10-16T10:48:32.883Z,101209.82
2022-10-16T10:49:55.060Z,101211.46
2022-10-16T10:51:23.452Z,101214.84
2022-10-16T10:52:37.725Z,101216.50
2022-10-16T10:53:48.975Z,101210.25
2022-10-16T10:55:12.763Z,101200.66
2022-10-16T10:56:18.531Z,101210.15
2022-10-16T10:58:59.575Z,101204.98
2022-10-16T11:00:39.998Z,101205.03
2022-10-16T11:01:58.056Z,101209.20
2022-10-16T11:03:25.414Z,101203.02
2022-10-16T11:04:42.901Z,101206.33
2022-10-16T11:06:00.844Z,101209.13
2022-10-16T11:07:06.435Z,101213.77
2022-10-16T11:08:15.209Z,101210.20
2022-10-16T11:09:21.057Z,101214.34
2022-10-16T11:10:26.637Z,101218.03
2022-10-16T11:11:49.028Z,101214.42
2022-10-16T11:12:58.424Z,101216.05
2022-10-16T11:14:19.441Z,101219.38
2022-10-16T11:15:31.622Z,101220.84
2022-10-16T11:16:37.764Z,101225.17
2022-10-16T11:17:43.330Z,101218.05
2022-10-16T11:19:14.704Z,101222.37
2022-10-16T11:21:59.018Z,101222.66
2022-10-16T11:23:37.877Z,101216.37
2022-10-16T11:24:55.983Z,101217.94
2022-10-16T11:26:02.756Z,101219.72
2022-10-16T11:27:09.546Z,101218.34
2022-10-16T11:28:21.075Z,101217.24
2022-10-16T11:30:58.427Z,101225.64
2022-10-16T11:33:27.256Z,101222.12
2022-10-16T11:34:42.012Z,101225.08
2022-10-16T11:36:13.644Z,101225.50
2022-10-16T11:37:22.128Z,101226.89
2022-10-16T11:38:39.156Z,101227.56
2022-10-16T11:39:44.486Z,101227.41
2022-10-16T11:40:49.051Z,101226.13
2022-10-16T11:41:58.708Z,101229.64
2022-10-16T11:43:19.713Z,101219.81
2022-10-16T11:44:54.924Z,101227.20
2022-10-16T11:46:00.513Z,101222.78
2022-10-16T11:47:33.965Z,101222.22
2022-10-16T11:48:33.693Z,101228.62
2022-10-16T11:49:38.595Z,101220.51
2022-10-16T11:50:56.593Z,101215.28
2022-10-16T11:52:28.232Z,101215.93
2022-10-16T11:53:49.097Z,101221.59
2022-10-16T11:55:02.797Z,101223.01
2022-10-16T11:56:06.055Z,101224.53
2022-10-16T11:57:14.972Z,101217.48
2022-10-16T11:58:35.631Z,101217.16
2022-10-16T11:59:50.499Z,101222.77
2022-10-16T12:01:12.264Z,101226.83
2022-10-16T12:02:35.183Z,101222.69
2022-10-16T12:03:44.902Z,101223.17
2022-10-16T12:04:50.579Z,101220.66
2022-10-16T12:06:01.908Z,101232.60
2022-10-16T12:07:11.575Z,101224.67
2022-10-16T12:08:16.689Z,101221.52
2022-10-16T12:09:23.800Z,101221.27
2022-10-16T12:10:29.135Z,101226.77
2022-10-16T12:11:39.902Z,101223.96
2022-10-16T12:12:41.732Z,101217.84
2022-10-16T12:13:45.126Z,101220.03
2022-10-16T12:15:11.182Z,101216.36
2022-10-16T12:15:59.258Z,101217.23
2022-10-16T12:16:57.827Z,101218.07
2022-10-16T12:18:01.235Z,101215.92
2022-10-16T12:19:16.306Z,101217.78
2022-10-16T12:20:22.305Z,101221.38
2022-10-16T12:21:27.774Z,101224.77
2022-10-16T12:22:32.192Z,101223.53
2022-10-16T12:23:41.712Z,101230.22
2022-10-16T12:24:44.396Z,101225.59
2022-10-16T12:25:50.411Z,101232.73
2022-10-16T12:26:53.744Z,101228.86
2022-10-16T12:28:16.938Z,101231.03
2022-10-16T12:29:25.467Z,101233.80
2022-10-16T12:30:35.009Z,101229.66
2022-10-16T12:31:49.670Z,101231.63
2022-10-16T12:32:49.582Z,101233.80
2022-10-16T12:34:01.611Z,101228.95
2022-10-16T12:35:07.350Z,101225.98
2022-10-16T12:37:35.429Z,101225.22
2022-10-16T12:38:41.959Z,101224.78
2022-10-16T12:39:44.084Z,101226.64
2022-10-16T12:40:49.539Z,101226.64
2022-10-16T12:42:03.116Z,101217.11
2022-10-16T12:43:28.890Z,101227.20
2022-10-16T12:44:34.978Z,101223.26
2022-10-16T12:45:36.847Z,101231.74
2022-10-16T12:46:40.264Z,101233.89
2022-10-16T12:47:51.441Z,101233.48
2022-10-16T12:49:08.655Z,101233.33
2022-10-16T12:50:00.433Z,101235.59